sensor_id;sensor_type;location;lat;lon;timestamp;P1;durP1;ratioP1;P2;durP2;ratioP2
78197;SDS011;67472;51.554;7.812;2023-02-05T00:02:25;22.05;;;9.45;;
78197;SDS011;67472;51.554;7.812;2023-02-05T00:05:09;24.75;;;10.20;;
78197;SDS011;67472;51.554;7.812;2023-02-05T00:07:54;20.83;;;10.95;;
78197;SDS011;67472;51.554;7.812;2023-02-05T00:10:38;27.63;;;11.90;;
78197;SDS011;67472;51.554;7.812;2023-02-05T00:13:24;19.75;;;10.60;;
78197;SDS011;67472;51.554;7.812;2023-02-05T00:16:12;19.23;;;11.23;;
78197;SDS011;67472;51.554;7.812;2023-02-05T00:19:02;19.85;;;9.52;;
78197;SDS011;67472;51.554;7.812;2023-02-05T00:21:46;26.63;;;12.07;;
78197;SDS011;67472;51.554;7.812;2023-02-05T00:24:31;33.03;;;15.20;;
78197;SDS011;67472;51.554;7.812;2023-02-05T00:27:15;28.15;;;12.13;;
78197;SDS011;67472;51.554;7.812;2023-02-05T00:30:00;27.98;;;11.63;;
78197;SDS011;67472;51.554;7.812;2023-02-05T00:32:44;24.15;;;10.68;;
78197;SDS011;67472;51.554;7.812;2023-02-05T00:35:29;25.60;;;11.52;;
78197;SDS011;67472;51.554;7.812;2023-02-05T00:38:13;26.70;;;10.30;;
78197;SDS011;67472;51.554;7.812;2023-02-05T00:40:58;34.22;;;11.10;;
78197;SDS011;67472;51.554;7.812;2023-02-05T00:43:43;28.05;;;11.45;;
78197;SDS011;67472;51.554;7.812;2023-02-05T00:46:28;33.63;;;15.80;;
78197;SDS011;67472;51.554;7.812;2023-02-05T00:49:12;29.05;;;13.75;;
78197;SDS011;67472;51.554;7.812;2023-02-05T00:51:57;33.10;;;12.75;;
78197;SDS011;67472;51.554;7.812;2023-02-05T00:54:41;30.05;;;12.07;;
78197;SDS011;67472;51.554;7.812;2023-02-05T00:57:26;26.15;;;12.52;;
78197;SDS011;67472;51.554;7.812;2023-02-05T01:00:10;35.65;;;14.50;;
78197;SDS011;67472;51.554;7.812;2023-02-05T01:02:55;31.67;;;13.68;;
78197;SDS011;67472;51.554;7.812;2023-02-05T01:05:40;28.98;;;12.77;;
78197;SDS011;67472;51.554;7.812;2023-02-05T01:08:24;27.80;;;12.00;;
78197;SDS011;67472;51.554;7.812;2023-02-05T01:11:09;31.13;;;11.30;;
78197;SDS011;67472;51.554;7.812;2023-02-05T01:13:54;31.83;;;12.45;;
78197;SDS011;67472;51.554;7.812;2023-02-05T01:16:39;31.73;;;11.48;;
78197;SDS011;67472;51.554;7.812;2023-02-05T01:19:23;22.63;;;10.48;;
78197;SDS011;67472;51.554;7.812;2023-02-05T01:22:08;22.17;;;10.85;;
78197;SDS011;67472;51.554;7.812;2023-02-05T01:24:54;25.35;;;11.80;;
78197;SDS011;67472;51.554;7.812;2023-02-05T01:27:38;29.58;;;10.77;;
78197;SDS011;67472;51.554;7.812;2023-02-05T01:30:23;28.73;;;11.85;;
78197;SDS011;67472;51.554;7.812;2023-02-05T01:33:07;31.30;;;11.25;;
78197;SDS011;67472;51.554;7.812;2023-02-05T01:35:52;39.90;;;12.80;;
78197;SDS011;67472;51.554;7.812;2023-02-05T01:38:36;27.65;;;11.82;;
78197;SDS011;67472;51.554;7.812;2023-02-05T01:41:21;31.10;;;11.88;;
78197;SDS011;67472;51.554;7.812;2023-02-05T01:44:12;31.38;;;12.93;;
78197;SDS011;67472;51.554;7.812;2023-02-05T01:46:57;34.40;;;12.15;;
78197;SDS011;67472;51.554;7.812;2023-02-05T01:49:42;28.33;;;11.55;;
78197;SDS011;67472;51.554;7.812;2023-02-05T01:52:27;31.00;;;12.15;;
78197;SDS011;67472;51.554;7.812;2023-02-05T01:55:11;23.67;;;12.57;;
78197;SDS011;67472;51.554;7.812;2023-02-05T01:57:56;37.15;;;11.85;;
78197;SDS011;67472;51.554;7.812;2023-02-05T02:00:43;19.85;;;10.65;;
78197;SDS011;67472;51.554;7.812;2023-02-05T02:03:27;30.70;;;11.35;;
78197;SDS011;67472;51.554;7.812;2023-02-05T02:06:14;30.70;;;11.57;;
78197;SDS011;67472;51.554;7.812;2023-02-05T02:08:59;29.77;;;12.10;;
78197;SDS011;67472;51.554;7.812;2023-02-05T02:11:44;29.27;;;11.65;;
78197;SDS011;67472;51.554;7.812;2023-02-05T02:14:30;40.75;;;11.77;;
78197;SDS011;67472;51.554;7.812;2023-02-05T02:17:17;26.83;;;11.93;;
78197;SDS011;67472;51.554;7.812;2023-02-05T02:20:05;23.20;;;11.25;;
78197;SDS011;67472;51.554;7.812;2023-02-05T02:29:29;31.95;;;12.48;;
78197;SDS011;67472;51.554;7.812;2023-02-05T02:32:25;35.55;;;11.82;;
78197;SDS011;67472;51.554;7.812;2023-02-05T02:35:35;24.27;;;10.05;;
78197;SDS011;67472;51.554;7.812;2023-02-05T02:38:40;28.88;;;10.73;;
78197;SDS011;67472;51.554;7.812;2023-02-05T02:44:31;30.90;;;10.30;;
78197;SDS011;67472;51.554;7.812;2023-02-05T02:47:20;26.13;;;10.02;;
78197;SDS011;67472;51.554;7.812;2023-02-05T02:50:10;40.58;;;11.45;;
78197;SDS011;67472;51.554;7.812;2023-02-05T02:53:01;25.63;;;10.75;;
78197;SDS011;67472;51.554;7.812;2023-02-05T02:55:53;30.67;;;10.63;;
78197;SDS011;67472;51.554;7.812;2023-02-05T03:01:30;51.65;;;19.25;;
78197;SDS011;67472;51.554;7.812;2023-02-05T03:04:29;39.33;;;16.85;;
78197;SDS011;67472;51.554;7.812;2023-02-05T03:07:19;37.05;;;14.80;;
78197;SDS011;67472;51.554;7.812;2023-02-05T03:12:55;45.20;;;14.55;;
78197;SDS011;67472;51.554;7.812;2023-02-05T03:15:40;41.03;;;14.60;;
78197;SDS011;67472;51.554;7.812;2023-02-05T03:18:26;39.60;;;13.05;;
78197;SDS011;67472;51.554;7.812;2023-02-05T03:21:17;32.80;;;14.43;;
78197;SDS011;67472;51.554;7.812;2023-02-05T03:24:07;29.92;;;12.30;;
78197;SDS011;67472;51.554;7.812;2023-02-05T03:26:52;32.33;;;13.10;;
78197;SDS011;67472;51.554;7.812;2023-02-05T03:29:40;38.88;;;15.30;;
78197;SDS011;67472;51.554;7.812;2023-02-05T03:32:44;34.08;;;15.38;;
78197;SDS011;67472;51.554;7.812;2023-02-05T03:35:57;42.15;;;15.52;;
78197;SDS011;67472;51.554;7.812;2023-02-05T03:42:35;47.47;;;15.90;;
78197;SDS011;67472;51.554;7.812;2023-02-05T03:51:25;41.67;;;15.70;;
78197;SDS011;67472;51.554;7.812;2023-02-05T03:54:17;44.95;;;16.95;;
78197;SDS011;67472;51.554;7.812;2023-02-05T03:57:31;34.03;;;16.13;;
78197;SDS011;67472;51.554;7.812;2023-02-05T04:00:23;41.97;;;17.05;;
78197;SDS011;67472;51.554;7.812;2023-02-05T04:03:11;36.30;;;15.43;;
78197;SDS011;67472;51.554;7.812;2023-02-05T04:05:57;31.70;;;15.90;;
78197;SDS011;67472;51.554;7.812;2023-02-05T04:08:43;27.55;;;14.35;;
78197;SDS011;67472;51.554;7.812;2023-02-05T04:11:27;39.35;;;17.52;;
78197;SDS011;67472;51.554;7.812;2023-02-05T04:14:12;39.65;;;17.15;;
78197;SDS011;67472;51.554;7.812;2023-02-05T04:16:58;44.95;;;18.40;;
78197;SDS011;67472;51.554;7.812;2023-02-05T04:19:44;38.92;;;16.83;;
78197;SDS011;67472;51.554;7.812;2023-02-05T04:22:31;38.17;;;16.08;;
78197;SDS011;67472;51.554;7.812;2023-02-05T04:25:16;49.05;;;18.00;;
78197;SDS011;67472;51.554;7.812;2023-02-05T04:28:01;42.10;;;18.02;;
78197;SDS011;67472;51.554;7.812;2023-02-05T04:30:47;32.95;;;15.85;;
78197;SDS011;67472;51.554;7.812;2023-02-05T04:33:32;36.50;;;15.90;;
78197;SDS011;67472;51.554;7.812;2023-02-05T04:36:16;39.85;;;17.92;;
78197;SDS011;67472;51.554;7.812;2023-02-05T04:39:00;39.67;;;18.25;;
78197;SDS011;67472;51.554;7.812;2023-02-05T04:41:45;46.60;;;19.35;;
78197;SDS011;67472;51.554;7.812;2023-02-05T04:44:30;42.67;;;17.40;;
78197;SDS011;67472;51.554;7.812;2023-02-05T04:47:14;34.78;;;16.48;;
78197;SDS011;67472;51.554;7.812;2023-02-05T04:49:58;38.70;;;17.30;;
78197;SDS011;67472;51.554;7.812;2023-02-05T04:52:43;29.70;;;15.82;;
78197;SDS011;67472;51.554;7.812;2023-02-05T04:55:28;37.83;;;17.23;;
78197;SDS011;67472;51.554;7.812;2023-02-05T04:58:13;39.17;;;18.67;;
78197;SDS011;67472;51.554;7.812;2023-02-05T05:00:58;44.35;;;20.35;;
78197;SDS011;67472;51.554;7.812;2023-02-05T05:03:42;44.08;;;19.70;;
78197;SDS011;67472;51.554;7.812;2023-02-05T05:06:27;43.90;;;18.85;;
78197;SDS011;67472;51.554;7.812;2023-02-05T05:09:12;43.95;;;18.45;;
78197;SDS011;67472;51.554;7.812;2023-02-05T05:11:56;43.97;;;19.13;;
78197;SDS011;67472;51.554;7.812;2023-02-05T05:14:40;41.13;;;18.63;;
78197;SDS011;67472;51.554;7.812;2023-02-05T05:17:25;47.17;;;18.58;;
78197;SDS011;67472;51.554;7.812;2023-02-05T05:20:15;44.13;;;19.10;;
78197;SDS011;67472;51.554;7.812;2023-02-05T05:23:13;55.47;;;19.33;;
78197;SDS011;67472;51.554;7.812;2023-02-05T05:26:37;46.22;;;20.10;;
78197;SDS011;67472;51.554;7.812;2023-02-05T05:29:41;52.65;;;22.63;;
78197;SDS011;67472;51.554;7.812;2023-02-05T05:32:28;46.88;;;20.98;;
78197;SDS011;67472;51.554;7.812;2023-02-05T05:35:12;48.05;;;20.58;;
78197;SDS011;67472;51.554;7.812;2023-02-05T05:37:57;42.30;;;18.25;;
78197;SDS011;67472;51.554;7.812;2023-02-05T05:40:41;53.90;;;22.73;;
78197;SDS011;67472;51.554;7.812;2023-02-05T05:43:44;45.15;;;21.20;;
78197;SDS011;67472;51.554;7.812;2023-02-05T05:46:31;53.70;;;22.90;;
78197;SDS011;67472;51.554;7.812;2023-02-05T05:49:16;49.28;;;22.02;;
78197;SDS011;67472;51.554;7.812;2023-02-05T05:52:00;56.35;;;22.88;;
78197;SDS011;67472;51.554;7.812;2023-02-05T05:54:44;48.28;;;23.40;;
78197;SDS011;67472;51.554;7.812;2023-02-05T05:57:29;48.28;;;21.63;;
78197;SDS011;67472;51.554;7.812;2023-02-05T06:00:14;40.15;;;20.17;;
78197;SDS011;67472;51.554;7.812;2023-02-05T06:02:58;43.40;;;20.20;;
78197;SDS011;67472;51.554;7.812;2023-02-05T06:05:43;51.95;;;21.73;;
78197;SDS011;67472;51.554;7.812;2023-02-05T06:08:27;48.00;;;20.70;;
78197;SDS011;67472;51.554;7.812;2023-02-05T06:11:12;46.75;;;20.55;;
78197;SDS011;67472;51.554;7.812;2023-02-05T06:13:56;48.55;;;21.30;;
78197;SDS011;67472;51.554;7.812;2023-02-05T06:16:41;46.85;;;20.70;;
78197;SDS011;67472;51.554;7.812;2023-02-05T06:19:25;45.13;;;20.25;;
78197;SDS011;67472;51.554;7.812;2023-02-05T06:22:10;40.83;;;19.73;;
78197;SDS011;67472;51.554;7.812;2023-02-05T06:24:54;37.15;;;19.65;;
78197;SDS011;67472;51.554;7.812;2023-02-05T06:27:39;51.72;;;20.77;;
78197;SDS011;67472;51.554;7.812;2023-02-05T06:30:23;35.58;;;19.05;;
78197;SDS011;67472;51.554;7.812;2023-02-05T06:33:07;46.28;;;19.80;;
78197;SDS011;67472;51.554;7.812;2023-02-05T06:35:54;46.15;;;20.85;;
78197;SDS011;67472;51.554;7.812;2023-02-05T06:38:38;44.58;;;22.13;;
78197;SDS011;67472;51.554;7.812;2023-02-05T06:41:23;43.20;;;20.83;;
78197;SDS011;67472;51.554;7.812;2023-02-05T06:44:07;50.03;;;21.85;;
78197;SDS011;67472;51.554;7.812;2023-02-05T06:46:52;48.20;;;21.50;;
78197;SDS011;67472;51.554;7.812;2023-02-05T06:49:36;46.10;;;23.33;;
78197;SDS011;67472;51.554;7.812;2023-02-05T06:52:20;53.95;;;26.20;;
78197;SDS011;67472;51.554;7.812;2023-02-05T06:55:05;54.88;;;24.92;;
78197;SDS011;67472;51.554;7.812;2023-02-05T06:57:50;48.10;;;23.67;;
78197;SDS011;67472;51.554;7.812;2023-02-05T07:00:34;52.80;;;24.33;;
78197;SDS011;67472;51.554;7.812;2023-02-05T07:03:19;55.80;;;26.65;;
78197;SDS011;67472;51.554;7.812;2023-02-05T07:06:03;53.83;;;25.42;;
78197;SDS011;67472;51.554;7.812;2023-02-05T07:08:49;54.97;;;27.23;;
78197;SDS011;67472;51.554;7.812;2023-02-05T07:11:34;50.90;;;27.33;;
78197;SDS011;67472;51.554;7.812;2023-02-05T07:14:19;60.28;;;28.05;;
78197;SDS011;67472;51.554;7.812;2023-02-05T07:17:03;61.85;;;29.52;;
78197;SDS011;67472;51.554;7.812;2023-02-05T07:19:47;53.80;;;27.45;;
78197;SDS011;67472;51.554;7.812;2023-02-05T07:22:32;65.05;;;28.40;;
78197;SDS011;67472;51.554;7.812;2023-02-05T07:25:17;61.38;;;31.52;;
78197;SDS011;67472;51.554;7.812;2023-02-05T07:28:01;74.80;;;32.00;;
78197;SDS011;67472;51.554;7.812;2023-02-05T07:30:49;66.90;;;31.58;;
78197;SDS011;67472;51.554;7.812;2023-02-05T07:33:34;66.60;;;33.38;;
78197;SDS011;67472;51.554;7.812;2023-02-05T07:36:20;73.30;;;33.08;;
78197;SDS011;67472;51.554;7.812;2023-02-05T07:39:04;75.70;;;34.20;;
78197;SDS011;67472;51.554;7.812;2023-02-05T07:41:49;74.38;;;35.40;;
78197;SDS011;67472;51.554;7.812;2023-02-05T07:44:44;71.03;;;35.50;;
78197;SDS011;67472;51.554;7.812;2023-02-05T07:47:28;80.13;;;35.03;;
78197;SDS011;67472;51.554;7.812;2023-02-05T07:50:13;76.32;;;36.05;;
78197;SDS011;67472;51.554;7.812;2023-02-05T07:52:57;74.80;;;34.63;;
78197;SDS011;67472;51.554;7.812;2023-02-05T07:55:42;74.07;;;35.13;;
78197;SDS011;67472;51.554;7.812;2023-02-05T07:58:26;79.80;;;36.45;;
78197;SDS011;67472;51.554;7.812;2023-02-05T08:01:10;70.72;;;33.70;;
78197;SDS011;67472;51.554;7.812;2023-02-05T08:03:55;75.93;;;34.58;;
78197;SDS011;67472;51.554;7.812;2023-02-05T08:06:39;69.95;;;35.45;;
78197;SDS011;67472;51.554;7.812;2023-02-05T08:09:24;72.22;;;36.35;;
78197;SDS011;67472;51.554;7.812;2023-02-05T08:12:08;76.50;;;37.22;;
78197;SDS011;67472;51.554;7.812;2023-02-05T08:14:53;79.47;;;36.83;;
78197;SDS011;67472;51.554;7.812;2023-02-05T08:17:37;85.45;;;38.70;;
78197;SDS011;67472;51.554;7.812;2023-02-05T08:20:22;81.55;;;36.47;;
78197;SDS011;67472;51.554;7.812;2023-02-05T08:23:06;79.93;;;38.17;;
78197;SDS011;67472;51.554;7.812;2023-02-05T08:25:55;75.43;;;37.17;;
78197;SDS011;67472;51.554;7.812;2023-02-05T08:28:41;82.05;;;39.50;;
78197;SDS011;67472;51.554;7.812;2023-02-05T08:31:25;83.55;;;36.92;;
78197;SDS011;67472;51.554;7.812;2023-02-05T08:34:10;70.32;;;34.00;;
78197;SDS011;67472;51.554;7.812;2023-02-05T08:36:54;68.30;;;32.22;;
78197;SDS011;67472;51.554;7.812;2023-02-05T08:39:40;57.15;;;31.45;;
78197;SDS011;67472;51.554;7.812;2023-02-05T08:42:25;66.60;;;32.03;;
78197;SDS011;67472;51.554;7.812;2023-02-05T08:45:10;64.57;;;33.17;;
78197;SDS011;67472;51.554;7.812;2023-02-05T08:47:54;61.03;;;32.05;;
78197;SDS011;67472;51.554;7.812;2023-02-05T08:50:38;54.47;;;30.38;;
78197;SDS011;67472;51.554;7.812;2023-02-05T08:53:23;55.63;;;30.50;;
78197;SDS011;67472;51.554;7.812;2023-02-05T08:56:07;53.78;;;29.50;;
78197;SDS011;67472;51.554;7.812;2023-02-05T08:58:53;53.60;;;29.02;;
78197;SDS011;67472;51.554;7.812;2023-02-05T09:01:38;54.50;;;27.92;;
78197;SDS011;67472;51.554;7.812;2023-02-05T09:04:25;47.15;;;26.02;;
78197;SDS011;67472;51.554;7.812;2023-02-05T09:07:10;42.72;;;25.33;;
78197;SDS011;67472;51.554;7.812;2023-02-05T09:09:55;41.95;;;24.52;;
78197;SDS011;67472;51.554;7.812;2023-02-05T09:12:39;48.83;;;26.13;;
78197;SDS011;67472;51.554;7.812;2023-02-05T09:15:24;47.20;;;26.27;;
78197;SDS011;67472;51.554;7.812;2023-02-05T09:18:08;37.70;;;22.55;;
78197;SDS011;67472;51.554;7.812;2023-02-05T09:20:53;36.38;;;21.65;;
78197;SDS011;67472;51.554;7.812;2023-02-05T09:23:37;41.38;;;22.40;;
78197;SDS011;67472;51.554;7.812;2023-02-05T09:26:22;37.40;;;21.35;;
78197;SDS011;67472;51.554;7.812;2023-02-05T09:29:07;34.20;;;20.42;;
78197;SDS011;67472;51.554;7.812;2023-02-05T09:31:51;37.22;;;21.25;;
78197;SDS011;67472;51.554;7.812;2023-02-05T09:34:36;33.00;;;19.92;;
78197;SDS011;67472;51.554;7.812;2023-02-05T09:37:20;34.85;;;20.60;;
78197;SDS011;67472;51.554;7.812;2023-02-05T09:40:05;32.67;;;18.98;;
78197;SDS011;67472;51.554;7.812;2023-02-05T09:51:39;21.08;;;13.00;;
78197;SDS011;67472;51.554;7.812;2023-02-05T09:57:28;15.48;;;10.05;;
78197;SDS011;67472;51.554;7.812;2023-02-05T10:00:26;12.98;;;7.40;;
78197;SDS011;67472;51.554;7.812;2023-02-05T10:21:09;4.07;;;2.97;;
78197;SDS011;67472;51.554;7.812;2023-02-05T10:30:02;7.32;;;2.65;;
78197;SDS011;67472;51.554;7.812;2023-02-05T10:33:16;4.03;;;2.42;;
78197;SDS011;67472;51.554;7.812;2023-02-05T10:36:02;3.75;;;2.25;;
78197;SDS011;67472;51.554;7.812;2023-02-05T10:38:50;6.90;;;2.97;;
78197;SDS011;67472;51.554;7.812;2023-02-05T10:41:38;3.28;;;2.67;;
78197;SDS011;67472;51.554;7.812;2023-02-05T10:45:04;7.13;;;2.75;;
78197;SDS011;67472;51.554;7.812;2023-02-05T10:50:56;3.30;;;2.25;;
78197;SDS011;67472;51.554;7.812;2023-02-05T10:53:43;1.65;;;1.50;;
78197;SDS011;67472;51.554;7.812;2023-02-05T10:56:28;3.58;;;1.50;;
78197;SDS011;67472;51.554;7.812;2023-02-05T10:59:33;2.70;;;1.52;;
78197;SDS011;67472;51.554;7.812;2023-02-05T11:02:25;3.28;;;2.05;;
78197;SDS011;67472;51.554;7.812;2023-02-05T11:05:35;6.38;;;1.98;;
78197;SDS011;67472;51.554;7.812;2023-02-05T11:14:12;4.30;;;1.63;;
78197;SDS011;67472;51.554;7.812;2023-02-05T11:17:17;3.42;;;1.27;;
78197;SDS011;67472;51.554;7.812;2023-02-05T11:20:06;2.55;;;2.17;;
78197;SDS011;67472;51.554;7.812;2023-02-05T11:23:07;5.63;;;2.22;;
78197;SDS011;67472;51.554;7.812;2023-02-05T11:26:06;1.40;;;1.23;;
78197;SDS011;67472;51.554;7.812;2023-02-05T11:28:52;5.88;;;3.45;;
78197;SDS011;67472;51.554;7.812;2023-02-05T11:31:36;4.65;;;2.00;;
78197;SDS011;67472;51.554;7.812;2023-02-05T11:34:21;1.95;;;1.40;;
78197;SDS011;67472;51.554;7.812;2023-02-05T11:37:09;6.80;;;2.58;;
78197;SDS011;67472;51.554;7.812;2023-02-05T11:40:00;4.20;;;2.50;;
78197;SDS011;67472;51.554;7.812;2023-02-05T11:46:07;2.75;;;2.40;;
78197;SDS011;67472;51.554;7.812;2023-02-05T11:48:58;2.10;;;1.92;;
78197;SDS011;67472;51.554;7.812;2023-02-05T11:51:44;1.80;;;1.65;;
78197;SDS011;67472;51.554;7.812;2023-02-05T11:54:30;2.00;;;1.58;;
78197;SDS011;67472;51.554;7.812;2023-02-05T12:03:00;1.40;;;1.30;;
78197;SDS011;67472;51.554;7.812;2023-02-05T12:08:58;1.70;;;1.52;;
78197;SDS011;67472;51.554;7.812;2023-02-05T12:21:15;1.65;;;1.50;;
78197;SDS011;67472;51.554;7.812;2023-02-05T12:33:21;2.92;;;2.60;;
78197;SDS011;67472;51.554;7.812;2023-02-05T12:58:00;5.93;;;3.72;;
78197;SDS011;67472;51.554;7.812;2023-02-05T13:00:56;6.47;;;4.75;;
78197;SDS011;67472;51.554;7.812;2023-02-05T13:03:47;8.15;;;5.65;;
78197;SDS011;67472;51.554;7.812;2023-02-05T13:06:37;7.78;;;6.38;;
78197;SDS011;67472;51.554;7.812;2023-02-05T13:09:30;8.93;;;6.78;;
78197;SDS011;67472;51.554;7.812;2023-02-05T13:12:42;7.60;;;6.90;;
78197;SDS011;67472;51.554;7.812;2023-02-05T13:15:31;8.30;;;7.18;;
78197;SDS011;67472;51.554;7.812;2023-02-05T13:18:24;13.98;;;8.00;;
78197;SDS011;67472;51.554;7.812;2023-02-05T13:21:16;9.45;;;8.35;;
78197;SDS011;67472;51.554;7.812;2023-02-05T13:24:41;13.57;;;8.82;;
78197;SDS011;67472;51.554;7.812;2023-02-05T13:27:51;11.68;;;9.43;;
78197;SDS011;67472;51.554;7.812;2023-02-05T13:30:58;12.05;;;9.65;;
78197;SDS011;67472;51.554;7.812;2023-02-05T13:33:47;12.85;;;10.80;;
78197;SDS011;67472;51.554;7.812;2023-02-05T13:39:51;25.55;;;17.75;;
78197;SDS011;67472;51.554;7.812;2023-02-05T13:55:17;19.20;;;12.70;;
78197;SDS011;67472;51.554;7.812;2023-02-05T13:58:21;18.05;;;12.05;;
78197;SDS011;67472;51.554;7.812;2023-02-05T14:01:14;16.33;;;12.80;;
78197;SDS011;67472;51.554;7.812;2023-02-05T14:04:22;15.85;;;12.48;;
78197;SDS011;67472;51.554;7.812;2023-02-05T14:07:16;16.45;;;12.35;;
78197;SDS011;67472;51.554;7.812;2023-02-05T14:10:06;18.10;;;12.93;;
78197;SDS011;67472;51.554;7.812;2023-02-05T14:15:57;13.90;;;10.98;;
78197;SDS011;67472;51.554;7.812;2023-02-05T14:21:58;11.23;;;9.20;;
78197;SDS011;67472;51.554;7.812;2023-02-05T14:24:43;13.52;;;10.13;;
78197;SDS011;67472;51.554;7.812;2023-02-05T14:33:30;10.82;;;9.30;;
78197;SDS011;67472;51.554;7.812;2023-02-05T14:41:45;10.77;;;9.13;;
78197;SDS011;67472;51.554;7.812;2023-02-05T14:44:38;14.15;;;10.60;;
78197;SDS011;67472;51.554;7.812;2023-02-05T14:47:26;10.77;;;9.63;;
78197;SDS011;67472;51.554;7.812;2023-02-05T14:50:18;15.70;;;10.45;;
78197;SDS011;67472;51.554;7.812;2023-02-05T14:53:15;13.75;;;10.32;;
78197;SDS011;67472;51.554;7.812;2023-02-05T14:56:20;13.93;;;9.93;;
78197;SDS011;67472;51.554;7.812;2023-02-05T14:59:28;17.50;;;10.63;;
78197;SDS011;67472;51.554;7.812;2023-02-05T15:19:54;13.93;;;7.53;;
78197;SDS011;67472;51.554;7.812;2023-02-05T15:22:45;10.15;;;6.90;;
78197;SDS011;67472;51.554;7.812;2023-02-05T15:25:37;13.18;;;6.82;;
78197;SDS011;67472;51.554;7.812;2023-02-05T15:40:10;11.07;;;7.40;;
78197;SDS011;67472;51.554;7.812;2023-02-05T15:43:00;10.88;;;6.40;;
78197;SDS011;67472;51.554;7.812;2023-02-05T15:45:59;12.73;;;6.22;;
78197;SDS011;67472;51.554;7.812;2023-02-05T15:48:46;15.23;;;6.55;;
78197;SDS011;67472;51.554;7.812;2023-02-05T15:51:31;15.75;;;6.13;;
78197;SDS011;67472;51.554;7.812;2023-02-05T15:54:18;20.05;;;7.15;;
78197;SDS011;67472;51.554;7.812;2023-02-05T15:57:04;19.73;;;8.82;;
78197;SDS011;67472;51.554;7.812;2023-02-05T15:59:50;16.83;;;9.38;;
78197;SDS011;67472;51.554;7.812;2023-02-05T16:02:36;18.58;;;8.63;;
78197;SDS011;67472;51.554;7.812;2023-02-05T16:05:23;16.95;;;8.02;;
78197;SDS011;67472;51.554;7.812;2023-02-05T16:08:14;15.35;;;8.40;;
78197;SDS011;67472;51.554;7.812;2023-02-05T16:11:00;24.42;;;6.88;;
78197;SDS011;67472;51.554;7.812;2023-02-05T16:13:48;12.75;;;4.78;;
78197;SDS011;67472;51.554;7.812;2023-02-05T16:16:55;12.00;;;5.10;;
78197;SDS011;67472;51.554;7.812;2023-02-05T16:19:55;18.98;;;5.28;;
78197;SDS011;67472;51.554;7.812;2023-02-05T16:23:00;16.42;;;5.78;;
78197;SDS011;67472;51.554;7.812;2023-02-05T16:25:53;16.85;;;4.38;;
78197;SDS011;67472;51.554;7.812;2023-02-05T16:28:41;21.20;;;3.95;;
78197;SDS011;67472;51.554;7.812;2023-02-05T16:31:28;13.50;;;3.45;;
78197;SDS011;67472;51.554;7.812;2023-02-05T16:34:18;14.95;;;3.60;;
78197;SDS011;67472;51.554;7.812;2023-02-05T16:37:06;16.92;;;4.03;;
78197;SDS011;67472;51.554;7.812;2023-02-05T16:39:55;12.68;;;3.33;;
78197;SDS011;67472;51.554;7.812;2023-02-05T16:42:43;16.10;;;4.00;;
78197;SDS011;67472;51.554;7.812;2023-02-05T16:45:29;14.48;;;3.70;;
78197;SDS011;67472;51.554;7.812;2023-02-05T16:54:35;19.13;;;5.38;;
78197;SDS011;67472;51.554;7.812;2023-02-05T17:03:15;19.52;;;5.40;;
78197;SDS011;67472;51.554;7.812;2023-02-05T17:06:02;25.25;;;5.22;;
78197;SDS011;67472;51.554;7.812;2023-02-05T17:08:52;18.13;;;5.65;;
78197;SDS011;67472;51.554;7.812;2023-02-05T17:11:39;20.55;;;6.43;;
78197;SDS011;67472;51.554;7.812;2023-02-05T17:17:18;16.92;;;5.32;;
78197;SDS011;67472;51.554;7.812;2023-02-05T17:20:16;16.58;;;4.82;;
78197;SDS011;67472;51.554;7.812;2023-02-05T17:23:07;22.50;;;5.53;;
78197;SDS011;67472;51.554;7.812;2023-02-05T17:25:52;19.83;;;5.55;;
78197;SDS011;67472;51.554;7.812;2023-02-05T17:28:38;20.20;;;5.90;;
78197;SDS011;67472;51.554;7.812;2023-02-05T17:31:27;14.48;;;4.93;;
78197;SDS011;67472;51.554;7.812;2023-02-05T17:34:15;18.02;;;5.95;;
78197;SDS011;67472;51.554;7.812;2023-02-05T17:36:59;16.90;;;5.10;;
78197;SDS011;67472;51.554;7.812;2023-02-05T17:39:44;18.00;;;5.32;;
78197;SDS011;67472;51.554;7.812;2023-02-05T17:42:28;16.67;;;5.30;;
78197;SDS011;67472;51.554;7.812;2023-02-05T17:48:07;17.38;;;4.85;;
78197;SDS011;67472;51.554;7.812;2023-02-05T17:50:52;15.35;;;4.65;;
78197;SDS011;67472;51.554;7.812;2023-02-05T17:53:41;17.38;;;4.63;;
78197;SDS011;67472;51.554;7.812;2023-02-05T17:56:26;15.85;;;4.85;;
78197;SDS011;67472;51.554;7.812;2023-02-05T17:59:11;14.90;;;4.97;;
78197;SDS011;67472;51.554;7.812;2023-02-05T18:01:58;17.90;;;4.32;;
78197;SDS011;67472;51.554;7.812;2023-02-05T18:04:42;19.95;;;4.40;;
78197;SDS011;67472;51.554;7.812;2023-02-05T18:07:32;16.55;;;4.80;;
78197;SDS011;67472;51.554;7.812;2023-02-05T18:10:23;24.88;;;5.10;;
78197;SDS011;67472;51.554;7.812;2023-02-05T18:13:12;29.55;;;6.38;;
78197;SDS011;67472;51.554;7.812;2023-02-05T18:15:58;19.25;;;5.57;;
78197;SDS011;67472;51.554;7.812;2023-02-05T18:18:46;26.83;;;7.10;;
78197;SDS011;67472;51.554;7.812;2023-02-05T18:21:31;20.25;;;6.20;;
78197;SDS011;67472;51.554;7.812;2023-02-05T18:24:15;24.55;;;6.07;;
78197;SDS011;67472;51.554;7.812;2023-02-05T18:27:00;24.48;;;6.97;;
78197;SDS011;67472;51.554;7.812;2023-02-05T18:29:46;24.15;;;6.85;;
78197;SDS011;67472;51.554;7.812;2023-02-05T18:32:31;19.40;;;6.68;;
78197;SDS011;67472;51.554;7.812;2023-02-05T18:35:15;22.23;;;6.35;;
78197;SDS011;67472;51.554;7.812;2023-02-05T18:37:59;17.60;;;7.18;;
78197;SDS011;67472;51.554;7.812;2023-02-05T18:40:44;21.10;;;7.95;;
78197;SDS011;67472;51.554;7.812;2023-02-05T18:43:28;20.33;;;7.88;;
78197;SDS011;67472;51.554;7.812;2023-02-05T18:46:16;21.95;;;9.35;;
78197;SDS011;67472;51.554;7.812;2023-02-05T18:49:01;24.58;;;8.90;;
78197;SDS011;67472;51.554;7.812;2023-02-05T18:51:45;24.63;;;9.50;;
78197;SDS011;67472;51.554;7.812;2023-02-05T18:54:31;23.73;;;10.30;;
78197;SDS011;67472;51.554;7.812;2023-02-05T18:57:15;25.30;;;10.50;;
78197;SDS011;67472;51.554;7.812;2023-02-05T19:00:00;33.70;;;11.05;;
78197;SDS011;67472;51.554;7.812;2023-02-05T19:02:44;24.73;;;10.68;;
78197;SDS011;67472;51.554;7.812;2023-02-05T19:05:29;39.03;;;11.13;;
78197;SDS011;67472;51.554;7.812;2023-02-05T19:08:13;20.80;;;8.93;;
78197;SDS011;67472;51.554;7.812;2023-02-05T19:10:58;20.95;;;9.45;;
78197;SDS011;67472;51.554;7.812;2023-02-05T19:13:42;20.23;;;10.05;;
78197;SDS011;67472;51.554;7.812;2023-02-05T19:16:27;28.70;;;10.65;;
78197;SDS011;67472;51.554;7.812;2023-02-05T19:19:14;23.10;;;9.90;;
78197;SDS011;67472;51.554;7.812;2023-02-05T19:22:00;34.00;;;20.05;;
78197;SDS011;67472;51.554;7.812;2023-02-05T19:24:47;30.73;;;16.90;;
78197;SDS011;67472;51.554;7.812;2023-02-05T19:27:32;20.08;;;13.30;;
78197;SDS011;67472;51.554;7.812;2023-02-05T19:30:17;24.38;;;12.65;;
78197;SDS011;67472;51.554;7.812;2023-02-05T19:33:02;25.85;;;13.60;;
78197;SDS011;67472;51.554;7.812;2023-02-05T19:35:46;26.90;;;12.80;;
78197;SDS011;67472;51.554;7.812;2023-02-05T19:38:33;19.20;;;10.85;;
78197;SDS011;67472;51.554;7.812;2023-02-05T19:41:20;19.98;;;12.52;;
78197;SDS011;67472;51.554;7.812;2023-02-05T19:44:07;22.67;;;15.07;;
78197;SDS011;67472;51.554;7.812;2023-02-05T19:46:52;23.77;;;12.65;;
78197;SDS011;67472;51.554;7.812;2023-02-05T19:49:36;23.45;;;12.35;;
78197;SDS011;67472;51.554;7.812;2023-02-05T19:52:21;24.33;;;13.65;;
78197;SDS011;67472;51.554;7.812;2023-02-05T19:55:05;25.75;;;15.30;;